Hidalgo, Texas
Current Conditions -  °F | °C
As of 2:53 PM on Wednesday 17 Dec 2014 (Local Time) from KMFE Reporting Station
Scattered Clouds Scattered Clouds  
Wind Chill: 76°   Ceiling: Unl
Heat Index: 76°   Visibility: 10mi
Dew Point: 64°   Wind: 17mph
Humidity: 67%   Direction: 150°SSE
Pressure: 29.98"   Gusts: 26mph
Location:  26.1°N, 98.26°W
Report Text: KMFE 172053Z 15015G23KT 10SM FEW028 SCT036 24/18 A2998 RMK AO2 SLP150 T02440178 56034
Loading
Personal Weather Stations






























Interactive Weather Map New forecast layout! Learn more

10-Day Weather Forecast

Advertisements
Track Severe Weather on mobile